Time;durP1;ratioP1;P1;durP2;ratioP2;P2;SDS_P1;SDS_P2;PMS_P1;PMS_P2;Temp;Humidity;BMP_temperature;BMP_pressure;BME280_temperature;BME280_humidity;BME280_pressure;Samples;Min_cycle;Max_cycle;Signal;HPM_P1;HPM_P2
2022/05/11 00:01:29;;;;;;;5.32;4.07;;;;;;;11.95;64.90;95768.84;5032237;28;20543;-74
2022/05/11 00:03:56;;;;;;;7.22;5.03;;;;;;;11.96;64.71;95770.50;5066826;28;20035;-75
2022/05/11 00:06:21;;;;;;;5.72;4.18;;;;;;;11.85;64.75;95765.53;5066609;28;20453;-75
2022/05/11 00:08:47;;;;;;;6.38;4.22;;;;;;;11.82;65.82;95763.19;5066663;28;20024;-76
2022/05/11 00:11:12;;;;;;;5.78;4.30;;;;;;;11.67;66.36;95763.94;5048874;28;20036;-74
2022/05/11 00:13:38;;;;;;;5.25;3.90;;;;;;;11.53;66.55;95753.94;5066815;28;20149;-74
2022/05/11 00:16:04;;;;;;;7.53;4.00;;;;;;;11.52;66.72;95750.44;5067035;28;20043;-74
2022/05/11 00:18:29;;;;;;;5.15;4.07;;;;;;;11.58;66.42;95754.25;5066231;28;20028;-74
2022/05/11 00:20:54;;;;;;;8.65;5.45;;;;;;;11.53;66.66;95757.47;5048386;28;20060;-73
2022/05/11 00:23:20;;;;;;;11.60;5.70;;;;;;;11.55;66.83;95751.94;5047929;28;20047;-74
2022/05/11 00:25:45;;;;;;;8.65;4.80;;;;;;;11.59;66.54;95753.25;5031878;28;20025;-74
2022/05/11 00:28:11;;;;;;;5.78;4.15;;;;;;;11.57;66.19;95748.06;5048651;28;20024;-75
2022/05/11 00:30:36;;;;;;;6.75;4.93;;;;;;;11.53;66.48;95737.81;5048591;28;20085;-74
2022/05/11 00:33:02;;;;;;;6.38;4.50;;;;;;;11.49;66.78;95735.50;5048353;28;20039;-73
2022/05/11 00:35:28;;;;;;;8.60;4.60;;;;;;;11.39;67.25;95742.94;5066071;28;20033;-75
2022/05/11 00:37:54;;;;;;;5.88;4.43;;;;;;;11.40;67.16;95738.41;5066038;28;20123;-73
2022/05/11 00:40:20;;;;;;;8.70;4.43;;;;;;;11.37;66.66;95734.22;5048210;28;20021;-74
2022/05/11 00:42:46;;;;;;;7.88;4.30;;;;;;;11.32;66.55;95732.06;5048073;28;20023;-73
2022/05/11 00:45:11;;;;;;;6.97;4.20;;;;;;;11.32;66.80;95736.56;5048211;28;20029;-73
2022/05/11 00:47:42;;;;;;;6.93;4.40;;;;;;;11.33;66.50;95741.78;5048018;28;20067;-74
2022/05/11 00:50:10;;;;;;;5.47;4.00;;;;;;;11.32;66.97;95739.25;5031866;28;20508;-73
2022/05/11 00:52:58;;;;;;;6.70;4.10;;;;;;;11.29;66.57;95737.78;5031374;28;20033;-75
2022/05/11 00:55:27;;;;;;;6.22;4.10;;;;;;;11.32;66.15;95741.94;5033891;28;20066;-74
2022/05/11 00:57:57;;;;;;;5.63;4.05;;;;;;;11.31;66.13;95743.81;5047655;28;20050;-74
2022/05/11 01:00:22;;;;;;;6.50;4.38;;;;;;;11.31;65.38;95751.03;5047941;28;20099;-75
2022/05/11 01:02:50;;;;;;;8.52;4.30;;;;;;;11.32;65.45;95750.84;5014533;28;20032;-74
2022/05/11 01:05:16;;;;;;;6.82;4.50;;;;;;;11.28;66.08;95754.06;5048076;28;20036;-74
2022/05/11 01:07:42;;;;;;;6.60;4.60;;;;;;;11.27;66.05;95755.09;5065421;28;20469;-74
2022/05/11 01:10:07;;;;;;;6.63;4.00;;;;;;;11.17;65.54;95755.28;5030902;28;20056;-74
2022/05/11 01:12:36;;;;;;;4.88;3.88;;;;;;;11.10;65.45;95760.50;5030888;28;20085;-74
2022/05/11 01:15:04;;;;;;;6.82;4.07;;;;;;;11.11;65.68;95754.09;5065369;28;20515;-74
2022/05/11 01:17:31;;;;;;;5.97;3.92;;;;;;;11.11;65.51;95752.28;5031391;28;20380;-74
2022/05/11 01:19:56;;;;;;;10.05;4.88;;;;;;;11.02;66.48;95753.31;5046621;28;20099;-74
2022/05/11 01:22:42;;;;;;;6.05;4.50;;;;;;;10.96;67.01;95754.81;5065646;28;20422;-74
2022/05/11 01:25:08;;;;;;;6.88;4.38;;;;;;;10.92;67.35;95748.13;5049017;28;20033;-75
2022/05/11 01:27:40;;;;;;;5.53;4.10;;;;;;;10.90;66.38;95744.75;5047498;28;20031;-75
2022/05/11 01:30:10;;;;;;;5.60;3.72;;;;;;;10.90;65.81;95743.94;5047618;28;20111;-75
2022/05/11 01:32:36;;;;;;;7.25;3.85;;;;;;;10.89;65.93;95737.75;5065175;28;20024;-74
2022/05/11 01:35:38;;;;;;;6.93;3.90;;;;;;;10.81;66.16;95746.66;5065050;28;20035;-74
2022/05/11 01:38:15;;;;;;;6.22;3.40;;;;;;;10.89;65.50;95748.47;5047170;28;20038;-74
2022/05/11 01:40:40;;;;;;;6.18;4.10;;;;;;;10.89;65.30;95751.16;5046883;28;20024;-74
2022/05/11 01:43:06;;;;;;;5.28;4.00;;;;;;;10.88;65.53;95752.16;5030558;28;20028;-74
2022/05/11 01:45:32;;;;;;;6.63;3.97;;;;;;;10.85;65.12;95747.16;5046941;28;20085;-74
2022/05/11 01:47:57;;;;;;;8.52;4.18;;;;;;;10.77;65.79;95755.22;5064933;28;20527;-74
2022/05/11 01:50:25;;;;;;;6.32;4.43;;;;;;;10.68;66.34;95747.16;5047147;28;20024;-74
2022/05/11 01:52:50;;;;;;;6.93;4.00;;;;;;;10.64;66.37;95743.13;5065067;28;20436;-74
2022/05/11 01:55:16;;;;;;;7.65;4.30;;;;;;;10.64;66.76;95745.81;5065309;28;20540;-74
2022/05/11 01:57:41;;;;;;;7.00;4.38;;;;;;;10.64;66.73;95751.19;5064707;28;20663;-74
2022/05/11 02:00:07;;;;;;;6.25;3.78;;;;;;;10.61;67.10;95749.69;5013450;28;20020;-73
2022/05/11 02:02:33;;;;;;;9.60;4.32;;;;;;;10.62;67.22;95753.22;5030346;28;20020;-74
2022/05/11 02:07:51;;;;;;;5.97;4.05;;;;;;;10.46;65.26;95752.19;5049861;28;20047;-74
2022/05/11 02:10:18;;;;;;;5.22;3.92;;;;;;;10.36;65.28;95751.53;5064958;28;20041;-74
2022/05/11 02:12:43;;;;;;;6.75;4.13;;;;;;;10.27;65.97;95746.16;5030333;28;20112;-73
2022/05/11 02:15:09;;;;;;;6.93;4.32;;;;;;;10.32;65.81;95742.97;5064336;28;20418;-74
2022/05/11 02:17:35;;;;;;;5.65;3.88;;;;;;;10.33;66.15;95739.28;5064506;28;20574;-74
2022/05/11 02:20:00;;;;;;;5.15;3.75;;;;;;;10.36;65.91;95743.47;5029740;28;20028;-74
2022/05/11 02:22:26;;;;;;;7.63;4.20;;;;;;;10.34;66.26;95743.66;5046586;28;20047;-74
2022/05/11 02:24:52;;;;;;;7.57;4.53;;;;;;;10.30;66.47;95744.16;5064667;28;20434;-75
2022/05/11 02:27:17;;;;;;;6.43;4.43;;;;;;;10.24;66.72;95741.13;5064841;28;20028;-73
2022/05/11 02:29:43;;;;;;;5.82;4.47;;;;;;;10.22;67.15;95745.81;5046642;28;20418;-73
2022/05/11 02:32:08;;;;;;;9.23;4.20;;;;;;;10.20;67.38;95742.47;5048913;28;20537;-73
2022/05/11 02:37:17;;;;;;;5.75;4.10;;;;;;;10.13;66.81;95741.44;5052819;28;20129;-74
2022/05/11 02:39:43;;;;;;;5.68;3.72;;;;;;;10.08;66.61;95739.28;5068711;28;20417;-74
2022/05/11 02:42:08;;;;;;;6.28;3.92;;;;;;;10.04;67.57;95747.81;5068247;28;20025;-74
2022/05/11 02:44:34;;;;;;;7.45;3.85;;;;;;;10.05;67.66;95750.31;5068580;28;20029;-74
2022/05/11 02:46:59;;;;;;;6.13;3.95;;;;;;;10.04;67.67;95747.81;5068201;28;20031;-74
2022/05/11 02:49:24;;;;;;;6.57;3.90;;;;;;;10.09;67.39;95750.84;5068584;28;20017;-74
2022/05/11 02:51:50;;;;;;;5.57;4.22;;;;;;;10.11;66.86;95746.97;5050246;28;20029;-75
2022/05/11 02:54:15;;;;;;;5.93;3.90;;;;;;;10.04;67.02;95747.81;5050002;28;20028;-74
2022/05/11 02:56:41;;;;;;;9.65;4.05;;;;;;;9.96;66.80;95754.81;5050049;28;20028;-75
2022/05/11 02:59:07;;;;;;;6.25;3.78;;;;;;;9.88;67.06;95761.00;5067947;28;20051;-74
2022/05/11 03:01:33;;;;;;;8.75;4.20;;;;;;;9.83;67.82;95757.16;5068103;28;20384;-75
2022/05/11 03:03:58;;;;;;;7.22;4.10;;;;;;;9.85;67.59;95760.53;5068008;28;20025;-74
2022/05/11 03:06:23;;;;;;;6.13;4.20;;;;;;;9.87;67.43;95762.03;5050081;28;20090;-74
2022/05/11 03:08:49;;;;;;;6.68;4.13;;;;;;;9.89;67.26;95768.06;5033199;28;20039;-74
2022/05/11 03:11:14;;;;;;;12.95;4.30;;;;;;;9.97;67.10;95769.06;5049341;28;20051;-74
2022/05/11 03:13:40;;;;;;;5.47;3.67;;;;;;;9.96;67.08;95768.22;5049588;28;20028;-73
2022/05/11 03:16:05;;;;;;;7.72;4.50;;;;;;;9.95;66.63;95766.56;5049668;28;20040;-74
2022/05/11 03:18:31;;;;;;;7.05;4.07;;;;;;;9.97;66.52;95771.75;5049534;28;20031;-74
2022/05/11 03:20:57;;;;;;;6.18;4.05;;;;;;;9.98;66.00;95774.25;5050033;28;20587;-74
2022/05/11 03:23:22;;;;;;;6.85;3.83;;;;;;;9.99;66.30;95775.97;5049718;28;20036;-75
2022/05/11 03:25:48;;;;;;;6.45;4.50;;;;;;;10.02;66.03;95772.94;5067729;28;20874;-74
2022/05/11 03:28:13;;;;;;;5.75;4.05;;;;;;;10.10;65.78;95782.00;5049518;28;20024;-74
2022/05/11 03:30:39;;;;;;;8.30;4.47;;;;;;;10.09;66.13;95778.47;5049587;28;20052;-74
2022/05/11 03:35:48;;;;;;;5.75;4.07;;;;;;;10.01;67.08;95779.28;5038130;28;20419;-73
2022/05/11 03:38:14;;;;;;;9.25;4.93;;;;;;;10.00;66.89;95777.63;5067168;28;20021;-74
2022/05/11 03:40:39;;;;;;;6.47;4.68;;;;;;;10.01;67.27;95778.47;5049759;28;20024;-75
2022/05/11 03:43:05;;;;;;;7.40;5.03;;;;;;;10.04;66.94;95780.81;5066594;28;20040;-74
2022/05/11 03:45:31;;;;;;;5.85;4.45;;;;;;;10.07;66.29;95782.31;5049503;28;20039;-74
2022/05/11 03:47:56;;;;;;;6.20;4.68;;;;;;;10.14;66.20;95789.53;5049312;28;20487;-74
2022/05/11 03:50:22;;;;;;;10.48;4.80;;;;;;;10.17;65.45;95787.53;5066815;28;20589;-73
2022/05/11 03:52:52;;;;;;;10.43;5.43;;;;;;;10.17;64.98;95783.00;5032764;28;20029;-74
2022/05/11 03:55:17;;;;;;;11.65;5.03;;;;;;;10.17;64.83;95780.34;5032437;28;20029;-74
2022/05/11 03:57:43;;;;;;;14.15;5.22;;;;;;;10.15;65.23;95785.00;5032729;28;20055;-75
2022/05/11 04:00:12;;;;;;;9.95;5.22;;;;;;;10.20;65.31;95788.03;5049081;28;20032;-74
2022/05/11 04:02:38;;;;;;;8.10;5.60;;;;;;;10.24;65.70;95784.00;5032931;28;20029;-74
2022/05/11 04:05:04;;;;;;;10.25;4.82;;;;;;;10.33;65.70;95786.72;5032189;28;20029;-73
2022/05/11 04:07:29;;;;;;;8.15;4.75;;;;;;;10.33;66.42;95792.06;5048642;28;20400;-73
2022/05/11 04:09:55;;;;;;;7.72;5.20;;;;;;;10.34;66.33;95796.41;5066485;28;20423;-73
2022/05/11 04:12:20;;;;;;;7.47;4.85;;;;;;;10.45;66.45;95806.81;5066685;28;20388;-73
2022/05/11 04:14:45;;;;;;;9.40;5.13;;;;;;;10.63;66.24;95806.69;5048411;28;20020;-74
2022/05/11 04:17:12;;;;;;;8.45;5.45;;;;;;;10.81;65.77;95816.41;5066592;28;20039;-74
2022/05/11 04:19:38;;;;;;;10.70;5.55;;;;;;;10.97;65.81;95815.56;5048968;28;20021;-74
2022/05/11 04:22:03;;;;;;;7.40;5.28;;;;;;;11.20;64.76;95820.22;5066682;28;20039;-73
2022/05/11 04:24:29;;;;;;;8.57;5.53;;;;;;;11.43;63.22;95808.72;5048520;28;20028;-76
2022/05/11 04:26:55;;;;;;;8.50;5.22;;;;;;;11.66;62.62;95812.47;5048493;28;20028;-74
2022/05/11 04:29:21;;;;;;;10.95;4.63;;;;;;;11.87;62.19;95814.56;5048611;28;20025;-74
2022/05/11 04:31:52;;;;;;;12.85;6.22;;;;;;;11.89;62.27;95811.72;5066215;28;20119;-75
2022/05/11 04:34:18;;;;;;;10.35;5.30;;;;;;;12.14;62.08;95820.50;5048494;28;20029;-75
2022/05/11 04:36:43;;;;;;;13.90;6.47;;;;;;;12.38;61.37;95813.28;5048255;28;20028;-75
2022/05/11 04:39:08;;;;;;;7.25;5.00;;;;;;;12.60;61.13;95825.09;5066710;28;20021;-74
2022/05/11 04:41:34;;;;;;;8.10;4.85;;;;;;;12.84;59.71;95822.38;5066168;28;20479;-75
2022/05/11 04:43:59;;;;;;;9.63;4.80;;;;;;;13.03;59.13;95826.41;5066150;28;20028;-74
2022/05/11 04:46:25;;;;;;;6.35;4.38;;;;;;;13.23;59.45;95818.63;5066576;28;20012;-75
2022/05/11 04:49:16;;;;;;;7.75;4.45;;;;;;;13.37;59.28;95824.22;5066165;28;20020;-74
2022/05/11 04:51:36;;;;;;;6.57;4.55;;;;;;;13.50;57.67;95825.41;5050610;28;20040;-75
2022/05/11 04:54:02;;;;;;;9.07;4.65;;;;;;;13.65;57.24;95826.28;5065902;28;20028;-75
2022/05/11 04:56:27;;;;;;;6.63;4.47;;;;;;;13.90;56.61;95822.44;5047226;28;20407;-74
2022/05/11 04:58:57;;;;;;;7.20;4.38;;;;;;;14.06;56.53;95819.53;5065866;28;20027;-74
2022/05/11 05:01:24;;;;;;;5.30;4.22;;;;;;;14.28;55.78;95824.13;5065858;28;20025;-75
2022/05/11 05:03:50;;;;;;;7.15;4.60;;;;;;;14.46;55.70;95829.09;5065336;28;20442;-75
2022/05/11 05:06:15;;;;;;;7.28;4.30;;;;;;;14.63;54.99;95824.28;5047562;28;20078;-74
2022/05/11 05:08:40;;;;;;;7.20;4.32;;;;;;;14.71;54.80;95832.25;5065368;28;20429;-75
2022/05/11 05:11:06;;;;;;;6.82;4.90;;;;;;;14.84;54.19;95830.72;5047472;28;20056;-75
2022/05/11 05:13:31;;;;;;;6.40;4.47;;;;;;;14.97;53.74;95842.66;5065823;28;20078;-74
2022/05/11 05:15:57;;;;;;;8.65;4.60;;;;;;;15.11;53.59;95833.66;5047500;28;20084;-74
2022/05/11 05:18:22;;;;;;;7.43;4.47;;;;;;;15.22;53.37;95839.56;5047523;28;20021;-74
2022/05/11 05:20:48;;;;;;;5.75;4.70;;;;;;;15.35;52.74;95845.03;5064988;28;20112;-74
2022/05/11 05:23:13;;;;;;;13.10;5.03;;;;;;;15.54;53.24;95846.22;5047710;28;20024;-75
2022/05/11 05:25:39;;;;;;;8.18;4.15;;;;;;;15.67;53.15;95848.16;5065429;28;20017;-74
2022/05/11 05:31:06;;;;;;;6.32;4.20;;;;;;;16.04;52.85;95855.25;5065062;28;20166;-75
2022/05/11 05:33:35;;;;;;;6.93;4.50;;;;;;;16.11;53.49;95852.56;5048255;28;20080;-75
2022/05/11 05:36:02;;;;;;;8.45;4.47;;;;;;;16.21;53.50;95852.19;5047953;28;20025;-75
2022/05/11 05:38:27;;;;;;;5.97;4.32;;;;;;;16.34;52.81;95854.94;5030353;28;20063;-74
2022/05/11 05:40:54;;;;;;;6.65;4.05;;;;;;;16.46;52.30;95859.78;5064445;28;20102;-74
2022/05/11 05:43:20;;;;;;;6.72;3.95;;;;;;;16.57;51.32;95861.91;5063705;28;20042;-74
2022/05/11 05:45:50;;;;;;;9.95;4.40;;;;;;;16.74;50.44;95861.50;5063988;28;20100;-75
2022/05/11 05:48:15;;;;;;;5.95;4.03;;;;;;;16.87;49.72;95860.69;5064402;28;20032;-75
2022/05/11 05:50:41;;;;;;;5.75;4.07;;;;;;;17.00;49.24;95863.41;5064660;28;20021;-75
2022/05/11 05:53:06;;;;;;;5.65;3.78;;;;;;;17.04;49.55;95858.41;5047428;28;20025;-73
2022/05/11 05:55:31;;;;;;;7.10;3.97;;;;;;;17.16;49.15;95867.63;5064484;28;20032;-74
2022/05/11 05:57:59;;;;;;;5.22;4.00;;;;;;;17.24;48.61;95860.31;5065269;28;20029;-74
2022/05/11 06:00:25;;;;;;;6.90;3.55;;;;;;;17.37;47.79;95860.31;5064331;28;20028;-77
2022/05/11 06:02:50;;;;;;;8.57;4.38;;;;;;;17.44;46.81;95865.75;5065391;28;20025;-75
2022/05/11 06:05:16;;;;;;;4.63;3.75;;;;;;;17.48;46.94;95866.13;5063544;28;20031;-77
2022/05/11 06:07:41;;;;;;;6.53;3.95;;;;;;;17.61;46.79;95871.56;5064521;28;20033;-74
2022/05/11 06:10:07;;;;;;;5.72;3.75;;;;;;;17.76;47.02;95867.78;5047352;28;20399;-74
2022/05/11 06:12:32;;;;;;;6.75;3.67;;;;;;;17.89;45.76;95869.63;5062845;28;20465;-74
2022/05/11 06:14:58;;;;;;;5.75;3.80;;;;;;;18.00;46.10;95877.09;5047086;28;20032;-74
2022/05/11 06:17:23;;;;;;;6.32;3.50;;;;;;;18.15;45.56;95870.63;5064080;28;20029;-74
2022/05/11 06:19:50;;;;;;;4.85;3.70;;;;;;;18.17;45.67;95879.38;5047058;28;20036;-74
2022/05/11 06:22:15;;;;;;;7.97;3.80;;;;;;;18.25;46.63;95881.03;5062783;28;20025;-75
2022/05/11 06:24:40;;;;;;;5.65;3.58;;;;;;;18.41;45.30;95869.66;5046810;28;20064;-75
2022/05/11 06:27:07;;;;;;;5.28;3.47;;;;;;;18.51;45.52;95882.78;5046043;28;20048;-75
2022/05/11 06:29:32;;;;;;;6.65;3.72;;;;;;;18.56;45.82;95876.69;5044744;28;20353;-74
2022/05/11 06:31:58;;;;;;;5.65;3.40;;;;;;;18.58;45.36;95873.75;5063863;28;20499;-74
2022/05/11 06:34:24;;;;;;;4.65;3.20;;;;;;;18.63;44.28;95873.94;5060698;28;20497;-75
2022/05/11 06:36:50;;;;;;;7.82;3.55;;;;;;;18.50;44.24;95880.28;5063710;28;20092;-74
2022/05/11 06:39:15;;;;;;;5.63;4.20;;;;;;;18.11;45.27;95875.59;5049622;28;20021;-74
2022/05/11 06:41:41;;;;;;;7.07;3.75;;;;;;;18.14;45.53;95882.50;5048768;28;20491;-74
2022/05/11 06:44:08;;;;;;;4.75;3.47;;;;;;;18.36;45.13;95883.03;5049924;28;20446;-74
2022/05/11 06:46:34;;;;;;;5.97;3.33;;;;;;;18.41;45.03;95885.13;5049173;28;20111;-75
2022/05/11 06:48:59;;;;;;;6.63;3.22;;;;;;;18.59;45.18;95878.97;5049070;28;20148;-75
2022/05/11 06:51:25;;;;;;;5.95;3.80;;;;;;;18.81;44.42;95875.09;5030712;28;20039;-73
2022/05/11 06:59:24;;;;;;;11.88;3.97;;;;;;;19.24;42.70;95877.13;5047964;28;20078;-75
2022/05/11 07:01:54;;;;;;;7.65;3.28;;;;;;;19.22;42.30;95879.22;5032886;28;20025;-75
2022/05/11 07:04:22;;;;;;;7.68;3.65;;;;;;;18.89;42.66;95877.56;5047141;28;20040;-75
2022/05/11 07:06:49;;;;;;;8.70;3.97;;;;;;;18.81;43.19;95872.38;5048852;28;20547;-74
2022/05/11 07:09:14;;;;;;;8.48;3.92;;;;;;;18.95;41.57;95867.69;5014141;28;20017;-75
2022/05/11 07:14:25;;;;;;;5.47;3.47;;;;;;;19.24;40.20;95877.13;5049575;28;20052;-75
2022/05/11 07:16:51;;;;;;;4.72;2.95;;;;;;;19.41;38.68;95875.75;5048808;28;20021;-75
2022/05/11 07:19:16;;;;;;;4.18;2.80;;;;;;;19.48;38.56;95866.47;5049474;28;20044;-74
2022/05/11 07:21:42;;;;;;;5.28;2.90;;;;;;;19.57;40.00;95869.72;5030380;28;20053;-74
2022/05/11 07:24:07;;;;;;;7.55;2.80;;;;;;;19.65;38.20;95865.91;5049622;28;20021;-74
2022/05/11 07:26:33;;;;;;;5.60;3.30;;;;;;;19.76;37.71;95867.06;5046609;28;20068;-74
2022/05/11 07:28:58;;;;;;;3.63;2.70;;;;;;;19.77;37.70;95863.25;5049348;28;20397;-75
2022/05/11 07:31:24;;;;;;;6.82;3.13;;;;;;;19.74;39.69;95855.56;5048847;28;20395;-74
2022/05/11 07:33:50;;;;;;;6.82;3.03;;;;;;;19.85;40.68;95854.81;5048958;28;20483;-73
2022/05/11 07:36:16;;;;;;;6.60;3.75;;;;;;;19.97;38.88;95851.34;5049532;28;20120;-75
2022/05/11 07:38:41;;;;;;;6.63;3.15;;;;;;;20.05;38.30;95856.50;5030018;28;20029;-75
2022/05/11 07:41:07;;;;;;;6.28;2.70;;;;;;;20.16;37.77;95844.03;5049322;28;20484;-75
2022/05/11 07:43:32;;;;;;;6.97;2.58;;;;;;;20.28;35.53;95841.34;5046203;28;20036;-75
2022/05/11 07:45:58;;;;;;;9.40;2.40;;;;;;;20.34;35.23;95843.19;5047917;28;20110;-75
2022/05/11 07:48:23;;;;;;;5.95;2.45;;;;;;;20.38;35.50;95832.63;5046572;28;20056;-75
2022/05/11 07:50:49;;;;;;;4.03;2.25;;;;;;;20.47;36.20;95839.44;5046641;28;20029;-74
2022/05/11 07:53:15;;;;;;;6.10;2.80;;;;;;;20.50;36.49;95835.44;5047779;28;20040;-76
2022/05/11 07:55:40;;;;;;;4.18;2.65;;;;;;;20.52;35.68;95830.59;5029736;28;20512;-74
2022/05/11 08:00:49;;;;;;;6.18;2.58;;;;;;;20.63;36.15;95837.94;5047716;28;20044;-74
2022/05/11 08:03:15;;;;;;;7.55;2.50;;;;;;;20.71;36.09;95838.69;5047868;28;20029;-76
2022/05/11 08:05:40;;;;;;;6.43;2.97;;;;;;;20.82;36.24;95826.16;5047528;28;20032;-75
2022/05/11 08:08:07;;;;;;;7.00;3.00;;;;;;;20.82;36.36;95828.91;5047384;28;20033;-74
2022/05/11 08:10:44;;;;;;;7.57;2.97;;;;;;;20.83;36.65;95823.22;5047071;28;20029;-75
2022/05/11 08:13:09;;;;;;;6.07;2.60;;;;;;;20.95;35.44;95822.44;5046392;28;20029;-75
2022/05/11 08:15:38;;;;;;;4.60;2.50;;;;;;;20.98;35.60;95822.81;5048405;28;20048;-74
2022/05/11 08:18:04;;;;;;;4.03;2.70;;;;;;;21.01;35.83;95817.97;5046004;28;20495;-75
2022/05/11 08:20:32;;;;;;;5.85;2.90;;;;;;;21.05;35.81;95820.00;5031031;28;20036;-75
2022/05/11 08:22:58;;;;;;;7.47;2.83;;;;;;;21.08;35.47;95816.78;5047444;28;20074;-75
2022/05/11 08:25:25;;;;;;;5.40;2.95;;;;;;;21.07;35.45;95817.84;5046838;28;20025;-75
2022/05/11 08:27:51;;;;;;;5.18;3.10;;;;;;;21.07;36.38;95815.09;5047571;28;20049;-75
2022/05/11 08:35:49;;;;;;;7.30;2.80;;;;;;;21.04;37.06;95804.66;5045725;28;20051;-74
2022/05/11 08:38:15;;;;;;;7.20;2.90;;;;;;;21.08;36.85;95807.78;5047988;28;20027;-74
2022/05/11 08:40:49;;;;;;;4.35;2.85;;;;;;;21.05;37.61;95800.91;5047363;28;20025;-75
2022/05/11 08:43:16;;;;;;;3.95;2.83;;;;;;;21.09;37.87;95796.63;5029588;28;20029;-74
2022/05/11 08:45:45;;;;;;;4.63;2.70;;;;;;;21.12;35.87;95803.50;5029944;28;20526;-74
2022/05/11 08:48:23;;;;;;;6.05;2.90;;;;;;;21.08;35.95;95805.88;5028664;28;20133;-74
2022/05/11 08:50:49;;;;;;;5.80;3.05;;;;;;;21.09;36.87;95801.25;5030851;28;20491;-75
2022/05/11 08:53:37;;;;;;;5.72;2.80;;;;;;;21.21;37.02;95804.84;5045745;28;20488;-73
2022/05/11 08:56:15;;;;;;;6.43;2.85;;;;;;;21.18;35.60;95799.84;5045543;28;20033;-75
2022/05/11 08:58:52;;;;;;;4.97;2.53;;;;;;;21.25;36.27;95805.16;5030189;28;20028;-75
2022/05/11 09:01:30;;;;;;;10.48;2.80;;;;;;;21.27;36.13;95804.94;5028966;28;20029;-74
2022/05/11 09:03:56;;;;;;;5.25;2.70;;;;;;;21.34;35.78;95803.78;5029974;28;20099;-74
2022/05/11 09:06:27;;;;;;;5.30;2.83;;;;;;;21.35;37.06;95799.97;5028989;28;20029;-75
2022/05/11 09:08:56;;;;;;;4.63;2.78;;;;;;;21.52;35.50;95793.81;5029339;28;20029;-75
2022/05/11 09:11:27;;;;;;;4.50;2.25;;;;;;;21.57;35.74;95799.34;5046163;28;20063;-75
2022/05/11 09:13:52;;;;;;;5.63;2.50;;;;;;;21.60;35.67;95798.88;5044802;28;20068;-75
2022/05/11 09:16:26;;;;;;;4.13;2.40;;;;;;;21.58;35.01;95795.56;5047597;28;20028;-75
2022/05/11 09:18:51;;;;;;;4.28;2.50;;;;;;;21.49;35.08;95800.56;5044817;28;20028;-75
2022/05/11 09:21:31;;;;;;;3.88;2.13;;;;;;;21.52;35.37;95796.53;5047451;28;20503;-75
2022/05/11 09:24:04;;;;;;;4.70;2.00;;;;;;;21.71;35.02;95790.94;5045509;28;20506;-75
2022/05/11 09:26:37;;;;;;;4.07;2.22;;;;;;;21.84;34.87;95790.69;5044656;28;20165;-75
2022/05/11 09:29:38;;;;;;;3.05;2.00;;;;;;;21.99;35.11;95786.63;5047178;28;20040;-75
2022/05/11 09:32:23;;;;;;;3.40;2.20;;;;;;;22.17;35.29;95780.16;5045378;28;20087;-74
2022/05/11 09:34:49;;;;;;;6.18;2.47;;;;;;;22.30;35.46;95781.78;5029220;28;20450;-74
2022/05/11 09:37:31;;;;;;;5.65;2.25;;;;;;;22.38;34.58;95787.91;5045549;28;20492;-75
2022/05/11 09:40:17;;;;;;;3.60;2.60;;;;;;;22.39;34.06;95786.88;5044539;28;20091;-75
2022/05/11 09:43:03;;;;;;;4.28;2.50;;;;;;;22.51;33.70;95773.97;5046126;28;20106;-75
2022/05/11 09:45:47;;;;;;;4.15;2.78;;;;;;;22.48;33.69;95782.66;5029037;28;20028;-74
2022/05/11 09:48:22;;;;;;;5.95;2.25;;;;;;;22.48;33.75;95782.66;5044412;28;20112;-74
2022/05/11 09:50:53;;;;;;;4.47;2.50;;;;;;;22.72;34.18;95774.38;5047336;28;20452;-74
2022/05/11 09:53:51;;;;;;;3.80;2.08;;;;;;;22.84;32.81;95782.50;5028606;28;20029;-75
2022/05/11 09:56:24;;;;;;;4.22;2.17;;;;;;;23.02;32.33;95769.69;5024814;28;20033;-74
2022/05/11 09:58:49;;;;;;;6.35;2.20;;;;;;;22.94;32.28;95770.94;5029371;28;20029;-76
2022/05/11 10:01:17;;;;;;;2.92;1.83;;;;;;;22.87;31.79;95768.34;5044522;28;20025;-74
2022/05/11 10:03:47;;;;;;;3.88;2.30;;;;;;;22.76;32.03;95770.09;5029464;28;20415;-74
2022/05/11 10:06:12;;;;;;;2.83;1.80;;;;;;;22.89;31.89;95759.91;5028281;28;20112;-74
2022/05/11 10:08:38;;;;;;;4.63;1.98;;;;;;;22.90;32.21;95769.75;5029446;28;20025;-75
2022/05/11 10:11:24;;;;;;;4.80;1.85;;;;;;;23.09;32.17;95768.44;5044593;28;20033;-75
2022/05/11 10:21:49;;;;;;;3.13;2.13;;;;;;;22.86;31.93;95760.38;5047067;28;20033;-74
2022/05/11 10:22:20;;;;;;;3.05;2.55;;;;;;;22.22;32.78;95757.59;5035052;28;20437;-74
2022/05/11 10:25:10;;;;;;;4.80;2.42;;;;;;;22.16;33.58;95750.38;5050481;28;20086;-75
2022/05/11 10:28:20;;;;;;;6.57;2.10;;;;;;;22.10;33.59;95755.72;5049060;28;20052;-74
2022/05/11 10:31:10;;;;;;;4.10;2.70;;;;;;;22.08;34.69;95749.69;5050337;28;20075;-74
2022/05/11 10:33:59;;;;;;;3.47;2.22;;;;;;;22.12;34.94;95752.75;5050384;28;20475;-74
2022/05/11 10:36:28;;;;;;;4.70;2.10;;;;;;;22.00;33.32;95752.81;5032912;28;20481;-74
2022/05/11 10:39:07;;;;;;;3.05;2.38;;;;;;;21.82;34.03;95753.78;5049109;28;20021;-74
2022/05/11 10:41:35;;;;;;;4.93;2.25;;;;;;;21.74;34.90;95760.44;5032083;28;20021;-74
2022/05/11 10:44:00;;;;;;;3.78;2.13;;;;;;;21.65;35.17;95759.13;5049696;28;20439;-75
2022/05/11 10:47:00;;;;;;;3.25;2.30;;;;;;;21.55;35.80;95760.59;5050243;28;20490;-74
2022/05/11 10:49:48;;;;;;;15.20;3.10;;;;;;;21.50;37.31;95752.28;5047700;28;20037;-75
2022/05/11 10:52:34;;;;;;;7.65;2.88;;;;;;;21.40;37.54;95757.50;5049840;28;20487;-75
2022/05/11 10:55:13;;;;;;;16.00;2.42;;;;;;;21.07;38.84;95767.94;5049965;28;20085;-75
2022/05/11 10:57:50;;;;;;;3.42;2.38;;;;;;;20.81;38.53;95762.63;5047631;28;20040;-76
2022/05/11 11:00:18;;;;;;;4.72;2.20;;;;;;;20.58;40.81;95779.78;5048788;28;20036;-75
2022/05/11 11:03:03;;;;;;;7.82;2.08;;;;;;;20.07;44.31;95790.94;5031299;28;20029;-75
2022/05/11 11:05:35;;;;;;;5.28;1.98;;;;;;;19.77;46.35;95801.50;5032871;28;20466;-75
2022/05/11 11:08:04;;;;;;;2.60;1.70;;;;;;;19.44;44.83;95813.56;5049871;28;20025;-75
2022/05/11 11:10:44;;;;;;;2.17;1.52;;;;;;;19.18;45.66;95818.22;5047446;28;20057;-75
2022/05/11 11:13:18;;;;;;;6.03;1.80;;;;;;;18.95;49.21;95818.75;5048884;28;20403;-75
2022/05/11 11:15:44;;;;;;;2.60;1.45;;;;;;;18.70;48.92;95808.72;5047881;28;20041;-75
2022/05/11 11:18:14;;;;;;;3.70;1.60;;;;;;;18.38;48.63;95799.50;5031638;28;20033;-75
2022/05/11 11:20:43;;;;;;;4.25;1.58;;;;;;;18.26;47.90;95790.38;5047452;28;20446;-74
2022/05/11 11:23:15;;;;;;;2.17;1.40;;;;;;;18.07;47.32;95798.34;5031017;28;20444;-75
2022/05/11 11:25:44;;;;;;;2.42;1.58;;;;;;;18.06;47.28;95794.00;5047904;28;20037;-75
2022/05/11 11:28:12;;;;;;;2.97;1.80;;;;;;;18.09;49.43;95790.84;5046448;28;20099;-74
2022/05/11 11:30:39;;;;;;;2.70;1.83;;;;;;;18.25;51.26;95794.16;5031383;28;20029;-74
2022/05/11 11:33:15;;;;;;;6.60;2.17;;;;;;;18.33;53.47;95784.94;5048220;28;20524;-73
2022/05/11 11:35:52;;;;;;;6.20;1.80;;;;;;;18.45;52.34;95785.03;5048971;28;20013;-74
2022/05/11 11:38:36;;;;;;;4.38;1.98;;;;;;;18.48;51.53;95780.03;5031386;28;20086;-75
2022/05/11 11:41:23;;;;;;;5.53;1.83;;;;;;;18.52;49.57;95783.94;5047818;28;20501;-74
2022/05/11 11:43:58;;;;;;;3.40;2.00;;;;;;;18.52;48.15;95788.56;5030976;28;20060;-74
2022/05/11 11:46:44;;;;;;;2.20;1.55;;;;;;;18.48;46.38;95790.03;5047982;28;20032;-74
2022/05/11 11:49:18;;;;;;;4.88;1.92;;;;;;;18.39;46.32;95789.47;5030252;28;20480;-75
2022/05/11 11:52:00;;;;;;;3.03;1.60;;;;;;;18.40;46.57;95786.53;5048784;28;20025;-74
2022/05/11 11:54:37;;;;;;;3.15;1.85;;;;;;;18.38;46.58;95788.63;5046276;28;20025;-74
2022/05/11 11:57:12;;;;;;;3.75;1.73;;;;;;;18.35;46.06;95793.66;5048885;28;20025;-75
2022/05/11 11:59:44;;;;;;;5.60;1.98;;;;;;;18.37;47.76;95786.97;5046815;28;20032;-75
2022/05/11 12:02:16;;;;;;;5.30;2.10;;;;;;;18.33;49.87;95817.50;5047909;28;20037;-74
2022/05/11 12:04:47;;;;;;;3.95;2.03;;;;;;;18.51;50.57;95805.91;5048491;28;20598;-74
2022/05/11 12:16:08;;;;;;;5.63;2.95;;;;;;;18.68;49.91;95808.09;5032359;28;20135;-74
2022/05/11 12:18:36;;;;;;;4.35;2.80;;;;;;;18.69;49.75;95801.59;5047224;28;20037;-74
2022/05/11 12:21:03;;;;;;;4.05;2.80;;;;;;;18.69;49.32;95798.88;5046139;28;20455;-75
2022/05/11 12:23:34;;;;;;;5.15;2.38;;;;;;;18.71;49.44;95794.91;5030204;28;20055;-74
2022/05/11 12:26:07;;;;;;;4.70;2.30;;;;;;;18.72;50.20;95791.13;5046658;28;20576;-75